createdAt,value
2023-01-17T00:02:21.093Z,6.65
2023-01-17T00:05:09.511Z,6.61
2023-01-17T00:07:57.883Z,6.59
2023-01-17T00:10:29.234Z,6.60
2023-01-17T00:13:00.532Z,6.64
2023-01-17T00:15:31.763Z,6.69
2023-01-17T00:18:02.577Z,6.69
2023-01-17T00:20:50.862Z,6.65
2023-01-17T00:23:39.227Z,6.63
2023-01-17T00:26:11.383Z,6.60
2023-01-17T00:28:41.315Z,6.63
2023-01-17T00:31:11.637Z,6.62
2023-01-17T00:33:41.097Z,6.63
2023-01-17T00:36:11.003Z,6.66
2023-01-17T00:38:40.541Z,6.66
2023-01-17T00:41:10.335Z,6.62
2023-01-17T00:43:58.715Z,6.64
2023-01-17T00:46:47.067Z,6.62
2023-01-17T00:49:35.318Z,6.63
2023-01-17T00:52:23.338Z,6.64
2023-01-17T00:55:11.420Z,6.60
2023-01-17T00:57:59.638Z,6.57
2023-01-17T01:00:47.784Z,6.59
2023-01-17T01:03:36.082Z,6.60
2023-01-17T01:06:24.697Z,6.59
2023-01-17T01:09:12.989Z,6.61
2023-01-17T01:12:01.157Z,6.68
2023-01-17T01:14:49.662Z,6.75
2023-01-17T01:17:37.842Z,6.78
2023-01-17T01:20:26.106Z,6.74
2023-01-17T01:23:14.499Z,6.77
2023-01-17T01:26:02.820Z,6.82
2023-01-17T01:28:50.960Z,6.86
2023-01-17T01:31:40.238Z,6.93
2023-01-17T01:34:11.009Z,6.88
2023-01-17T01:36:41.844Z,6.80
2023-01-17T01:39:12.416Z,6.74
2023-01-17T01:41:43.213Z,6.72
2023-01-17T01:44:31.043Z,6.70
2023-01-17T01:47:01.766Z,6.66
2023-01-17T01:49:32.455Z,6.65
2023-01-17T01:52:03.050Z,6.65
2023-01-17T01:54:34.796Z,6.68
2023-01-17T01:57:05.375Z,6.68
2023-01-17T01:59:36.067Z,6.68
2023-01-17T02:02:06.891Z,6.65
2023-01-17T02:04:37.532Z,6.60
2023-01-17T02:07:10.381Z,6.59
2023-01-17T02:09:41.083Z,6.59
2023-01-17T02:12:11.746Z,6.59
2023-01-17T02:14:42.586Z,6.53
2023-01-17T02:17:16.735Z,6.47
2023-01-17T02:20:06.653Z,6.42
2023-01-17T02:22:56.728Z,6.41
2023-01-17T02:25:36.690Z,6.45
2023-01-17T02:28:12.360Z,6.54
2023-01-17T02:30:43.958Z,6.62
2023-01-17T02:33:18.484Z,6.66
2023-01-17T02:35:52.809Z,6.70
2023-01-17T02:38:28.461Z,6.72
2023-01-17T02:40:59.335Z,6.74
2023-01-17T02:43:30.233Z,6.76
2023-01-17T02:46:01.024Z,6.76
2023-01-17T02:48:33.012Z,6.71
2023-01-17T02:51:20.063Z,6.66
2023-01-17T02:53:54.762Z,6.64
2023-01-17T02:56:28.573Z,6.60
2023-01-17T02:59:06.043Z,6.58
2023-01-17T03:01:39.132Z,6.53
2023-01-17T03:04:10.697Z,6.49
2023-01-17T03:06:42.768Z,6.47
2023-01-17T03:09:13.420Z,6.44
2023-01-17T03:11:44.661Z,6.43
2023-01-17T03:14:15.294Z,6.38
2023-01-17T03:16:46.073Z,6.30
2023-01-17T03:19:16.761Z,6.28
2023-01-17T03:21:47.401Z,6.32
2023-01-17T03:24:18.155Z,6.35
2023-01-17T03:26:48.889Z,6.40
2023-01-17T03:29:19.645Z,6.45
2023-01-17T03:31:50.271Z,6.51
2023-01-17T03:34:21.037Z,6.53
2023-01-17T03:36:51.797Z,6.52
2023-01-17T03:39:22.530Z,6.51
2023-01-17T03:41:53.103Z,6.54
2023-01-17T03:44:23.924Z,6.54
2023-01-17T03:46:54.626Z,6.53
2023-01-17T03:49:25.446Z,6.50
2023-01-17T03:51:56.273Z,6.49
2023-01-17T03:54:26.989Z,6.49
2023-01-17T03:56:57.730Z,6.46
2023-01-17T03:59:28.391Z,6.44
2023-01-17T04:01:59.133Z,6.42
2023-01-17T04:04:29.896Z,6.40
2023-01-17T04:07:00.797Z,6.39
2023-01-17T04:09:34.157Z,6.36
2023-01-17T04:12:04.971Z,6.35
2023-01-17T04:14:36.207Z,6.35
2023-01-17T04:17:07.100Z,6.34
2023-01-17T04:19:38.413Z,6.32
2023-01-17T04:22:10.463Z,6.31
2023-01-17T04:24:41.229Z,6.32
2023-01-17T04:27:14.339Z,6.34
2023-01-17T04:29:46.748Z,6.34
2023-01-17T04:32:17.527Z,6.34
2023-01-17T04:34:48.475Z,6.30
2023-01-17T04:37:19.426Z,6.31
2023-01-17T04:39:50.177Z,6.40
2023-01-17T04:42:21.218Z,6.49
2023-01-17T04:44:54.710Z,6.50
2023-01-17T04:47:25.294Z,6.51
2023-01-17T04:49:56.628Z,6.51
2023-01-17T04:52:27.479Z,6.49
2023-01-17T04:54:58.731Z,6.46
2023-01-17T04:57:29.579Z,6.42
2023-01-17T05:00:01.247Z,6.41
2023-01-17T05:02:32.000Z,6.44
2023-01-17T05:05:03.080Z,6.50
2023-01-17T05:07:35.827Z,6.63
2023-01-17T05:10:07.553Z,6.72
2023-01-17T05:12:38.281Z,6.80
2023-01-17T05:15:10.032Z,6.88
2023-01-17T05:17:40.695Z,6.95
2023-01-17T05:20:13.286Z,7.02
2023-01-17T05:22:43.909Z,7.06
2023-01-17T05:25:14.897Z,7.08
2023-01-17T05:27:47.175Z,7.07
2023-01-17T05:30:18.544Z,7.01
2023-01-17T05:32:50.945Z,6.95
2023-01-17T05:35:22.646Z,6.88
2023-01-17T05:37:54.791Z,6.75
2023-01-17T05:40:27.189Z,6.69
2023-01-17T05:42:59.565Z,6.56
2023-01-17T05:45:32.244Z,6.49
2023-01-17T05:48:04.882Z,6.55
2023-01-17T05:50:37.849Z,6.56
2023-01-17T05:53:09.823Z,6.56
2023-01-17T05:55:41.237Z,6.55
2023-01-17T05:58:15.845Z,6.55
2023-01-17T06:00:47.865Z,6.58
2023-01-17T06:03:20.578Z,6.59
2023-01-17T06:05:52.235Z,6.58
2023-01-17T06:08:23.611Z,6.58
2023-01-17T06:10:55.219Z,6.60
2023-01-17T06:13:27.482Z,6.63
2023-01-17T06:16:03.258Z,6.65
2023-01-17T06:18:34.589Z,6.64
2023-01-17T06:21:06.285Z,6.61
2023-01-17T06:23:37.795Z,6.60
2023-01-17T06:26:10.254Z,6.60
2023-01-17T06:28:42.483Z,6.57
2023-01-17T06:31:14.863Z,6.61
2023-01-17T06:33:46.820Z,6.65
2023-01-17T06:42:36.766Z,6.79
2023-01-17T06:45:09.402Z,6.82
2023-01-17T06:47:41.148Z,6.85
2023-01-17T06:50:13.794Z,6.83
2023-01-17T06:52:44.786Z,6.80
2023-01-17T06:55:15.625Z,6.80
2023-01-17T06:57:46.596Z,6.80
2023-01-17T07:00:18.339Z,6.81
2023-01-17T07:02:51.513Z,6.82
2023-01-17T07:05:22.593Z,6.81
2023-01-17T07:07:53.710Z,6.80
2023-01-17T07:10:24.704Z,6.79
2023-01-17T07:13:01.165Z,6.76
2023-01-17T07:15:31.975Z,6.78
2023-01-17T07:18:03.908Z,6.83
2023-01-17T07:20:34.968Z,6.87
2023-01-17T07:23:06.347Z,6.87
2023-01-17T07:25:37.146Z,6.89
2023-01-17T07:28:08.148Z,6.93
2023-01-17T07:30:39.018Z,6.96
2023-01-17T07:33:09.876Z,6.99
2023-01-17T07:35:40.965Z,7.01
2023-01-17T07:38:12.930Z,7.00
2023-01-17T07:40:43.794Z,7.02
2023-01-17T07:43:14.839Z,7.05
2023-01-17T07:45:46.516Z,7.07
2023-01-17T07:48:17.330Z,7.08
2023-01-17T07:50:49.836Z,7.07
2023-01-17T07:53:21.357Z,7.08
2023-01-17T07:55:52.340Z,7.12
2023-01-17T07:58:23.290Z,7.17
2023-01-17T08:00:54.064Z,7.20
2023-01-17T08:03:24.945Z,7.25
2023-01-17T08:05:57.789Z,7.25
2023-01-17T08:08:28.871Z,7.24
2023-01-17T08:10:59.613Z,7.26
2023-01-17T08:13:31.296Z,7.26
2023-01-17T08:16:03.540Z,7.30
2023-01-17T08:18:34.492Z,7.37
2023-01-17T08:21:05.310Z,7.46
2023-01-17T08:23:36.105Z,7.53
2023-01-17T08:26:06.914Z,7.57
2023-01-17T08:28:37.849Z,7.61
2023-01-17T08:31:09.348Z,7.68
2023-01-17T08:33:40.296Z,7.76
2023-01-17T08:36:11.044Z,7.81
2023-01-17T08:38:41.775Z,7.85
2023-01-17T08:41:13.133Z,7.84
2023-01-17T08:43:44.075Z,7.76
2023-01-17T08:46:14.834Z,7.73
2023-01-17T08:48:45.704Z,7.81
2023-01-17T08:51:16.505Z,7.97
2023-01-17T08:53:48.754Z,8.15
2023-01-17T08:56:19.508Z,8.29
2023-01-17T08:58:50.236Z,8.43
2023-01-17T09:01:21.168Z,8.56
2023-01-17T09:03:52.559Z,8.57
2023-01-17T09:06:23.382Z,8.56
2023-01-17T09:08:55.300Z,8.55
2023-01-17T09:11:25.979Z,8.57
2023-01-17T09:13:56.818Z,8.64
2023-01-17T09:16:27.643Z,8.73
2023-01-17T09:18:58.657Z,8.78
2023-01-17T09:21:29.293Z,8.84
2023-01-17T09:24:00.148Z,8.91
2023-01-17T09:26:31.113Z,8.92
2023-01-17T09:29:01.994Z,8.91
2023-01-17T09:31:32.742Z,8.95
2023-01-17T09:34:03.668Z,9.01
2023-01-17T09:36:34.892Z,9.08
2023-01-17T09:39:05.833Z,9.15
2023-01-17T09:41:36.981Z,9.21
2023-01-17T09:44:09.078Z,9.31
2023-01-17T09:46:40.463Z,9.42
2023-01-17T09:49:13.524Z,9.49
2023-01-17T09:51:45.161Z,9.55
2023-01-17T09:54:19.595Z,9.61
2023-01-17T09:56:53.191Z,9.64
2023-01-17T09:59:33.072Z,9.66
2023-01-17T10:02:11.279Z,9.71
2023-01-17T10:04:51.700Z,9.75
2023-01-17T10:07:24.891Z,9.80
2023-01-17T10:10:05.970Z,9.83
2023-01-17T10:12:39.104Z,9.80
2023-01-17T10:21:21.171Z,9.89
2023-01-17T10:23:59.526Z,10.05
2023-01-17T10:26:30.356Z,10.18
2023-01-17T10:29:02.406Z,10.34
2023-01-17T10:31:35.492Z,10.62
2023-01-17T10:34:07.491Z,10.84
2023-01-17T10:36:39.427Z,11.10
2023-01-17T10:39:15.449Z,11.25
2023-01-17T10:41:46.759Z,11.33
2023-01-17T10:44:22.847Z,11.43
2023-01-17T10:46:56.220Z,11.53
2023-01-17T10:49:28.073Z,11.59
2023-01-17T10:52:08.556Z,11.64
2023-01-17T10:54:51.515Z,11.71
2023-01-17T10:57:22.811Z,11.79
2023-01-17T10:59:53.752Z,11.86
2023-01-17T11:02:25.802Z,11.88
2023-01-17T11:04:57.394Z,11.92
2023-01-17T11:07:29.421Z,11.97
2023-01-17T11:10:00.306Z,12.03
2023-01-17T11:12:31.818Z,12.11
2023-01-17T11:15:07.243Z,12.22
2023-01-17T11:17:38.403Z,12.33
2023-01-17T11:20:15.723Z,12.45
2023-01-17T11:22:47.587Z,12.54
2023-01-17T11:25:23.495Z,12.63
2023-01-17T11:28:01.886Z,12.71
2023-01-17T11:30:32.804Z,12.76
2023-01-17T11:33:06.443Z,12.84
2023-01-17T11:35:37.391Z,12.89
2023-01-17T11:38:13.428Z,12.99
2023-01-17T11:40:44.425Z,13.14
2023-01-17T11:43:23.050Z,13.33
2023-01-17T11:46:04.751Z,13.62
2023-01-17T11:48:37.313Z,13.96
2023-01-17T11:51:15.998Z,14.35
2023-01-17T11:53:48.625Z,14.73
2023-01-17T11:56:22.415Z,15.08
2023-01-17T11:58:53.182Z,15.35
2023-01-17T12:01:27.821Z,15.55
2023-01-17T12:04:09.757Z,15.84
2023-01-17T12:06:56.846Z,16.12
2023-01-17T12:09:31.233Z,16.37
2023-01-17T12:12:21.638Z,16.59
2023-01-17T12:14:56.101Z,16.84
2023-01-17T12:17:30.868Z,17.00
2023-01-17T12:20:05.090Z,17.21
2023-01-17T12:22:42.411Z,17.23
2023-01-17T12:25:18.133Z,17.15
2023-01-17T12:27:50.832Z,17.08
2023-01-17T12:30:25.206Z,16.98
2023-01-17T12:33:05.477Z,16.88
2023-01-17T12:35:38.862Z,16.81
2023-01-17T12:38:18.095Z,16.80
2023-01-17T12:40:56.951Z,16.76
2023-01-17T12:43:29.693Z,16.70
2023-01-17T12:46:03.331Z,16.64
2023-01-17T12:48:35.730Z,16.59
2023-01-17T12:51:07.381Z,16.56
2023-01-17T12:53:39.450Z,16.52
2023-01-17T12:56:12.767Z,16.46
2023-01-17T12:58:44.884Z,16.38
2023-01-17T13:01:18.867Z,16.31
2023-01-17T13:03:53.084Z,16.24
2023-01-17T13:06:26.292Z,16.17
2023-01-17T13:08:58.153Z,16.12
2023-01-17T13:11:33.729Z,16.10
2023-01-17T13:14:06.957Z,16.10
2023-01-17T13:16:40.644Z,16.10
2023-01-17T13:19:15.722Z,16.08
2023-01-17T13:21:46.531Z,16.05
2023-01-17T13:24:33.958Z,16.02
2023-01-17T13:27:09.111Z,15.96
2023-01-17T13:29:41.946Z,15.92
2023-01-17T13:32:16.591Z,15.85
2023-01-17T13:34:53.298Z,15.78
2023-01-17T13:37:31.554Z,15.75
2023-01-17T13:40:09.424Z,15.71
2023-01-17T13:42:43.668Z,15.67
2023-01-17T13:45:19.625Z,15.62
2023-01-17T13:47:50.691Z,15.58
2023-01-17T13:50:34.911Z,15.53
2023-01-17T13:53:19.804Z,15.50
2023-01-17T13:55:53.444Z,15.46
2023-01-17T13:58:30.404Z,15.42
2023-01-17T14:01:01.119Z,15.39
2023-01-17T14:04:01.089Z,15.36
2023-01-17T14:06:35.002Z,15.34
2023-01-17T14:09:07.457Z,15.33
2023-01-17T14:11:38.435Z,15.31
2023-01-17T14:14:26.721Z,15.29
2023-01-17T14:16:57.561Z,15.26
2023-01-17T14:19:30.751Z,15.23
2023-01-17T14:22:14.943Z,15.20
2023-01-17T14:24:59.532Z,15.17
2023-01-17T14:27:32.041Z,15.12
2023-01-17T14:30:02.772Z,15.07
2023-01-17T14:32:34.404Z,14.99
2023-01-17T14:35:05.594Z,14.93
2023-01-17T14:37:39.332Z,14.87
2023-01-17T14:40:17.801Z,14.81
2023-01-17T14:42:48.962Z,14.74
2023-01-17T14:45:23.318Z,14.67
2023-01-17T14:47:54.052Z,14.58
2023-01-17T14:50:26.059Z,14.51
2023-01-17T14:53:09.532Z,14.41
2023-01-17T14:55:40.475Z,14.28
2023-01-17T14:58:18.037Z,14.14
2023-01-17T15:00:50.114Z,13.99
2023-01-17T15:03:21.213Z,13.89
2023-01-17T15:05:52.752Z,13.79
2023-01-17T15:08:23.759Z,13.71
2023-01-17T15:10:55.043Z,13.65
2023-01-17T15:13:43.079Z,13.58
2023-01-17T15:16:24.822Z,13.51
2023-01-17T15:18:56.193Z,13.49
2023-01-17T15:21:28.032Z,13.48
2023-01-17T15:23:59.272Z,13.42
2023-01-17T15:26:30.831Z,13.39
2023-01-17T15:29:03.595Z,13.34
2023-01-17T15:31:41.937Z,13.30
2023-01-17T15:34:16.960Z,13.24
2023-01-17T15:36:49.009Z,13.19
2023-01-17T15:39:22.245Z,13.13
2023-01-17T15:41:53.827Z,13.03
2023-01-17T15:44:25.226Z,12.94
2023-01-17T15:46:56.321Z,12.88
2023-01-17T15:49:29.117Z,12.80
2023-01-17T15:52:14.776Z,12.74
2023-01-17T15:54:48.074Z,12.65
2023-01-17T15:57:22.865Z,12.57
2023-01-17T16:00:05.691Z,12.51
2023-01-17T16:02:43.815Z,12.44
2023-01-17T16:05:43.727Z,12.37
2023-01-17T16:08:35.886Z,12.29
2023-01-17T16:11:09.666Z,12.23
2023-01-17T16:13:42.565Z,12.15
2023-01-17T16:16:17.880Z,12.08
2023-01-17T16:18:49.013Z,12.03
2023-01-17T16:21:20.994Z,12.01
2023-01-17T16:23:52.388Z,11.99
2023-01-17T16:26:23.335Z,11.98
2023-01-17T16:28:54.483Z,11.99
2023-01-17T16:31:25.396Z,12.01
2023-01-17T16:33:56.435Z,12.02
2023-01-17T16:36:27.252Z,12.02
2023-01-17T16:38:58.257Z,11.97
2023-01-17T16:41:29.980Z,11.92
2023-01-17T16:44:02.536Z,11.83
2023-01-17T16:46:38.250Z,11.77
2023-01-17T16:49:09.800Z,11.76
2023-01-17T16:51:40.553Z,11.67
2023-01-17T16:54:11.488Z,11.56
2023-01-17T16:56:42.256Z,11.51
2023-01-17T16:59:13.169Z,11.52
2023-01-17T17:01:44.215Z,11.50
2023-01-17T17:04:15.125Z,11.46
2023-01-17T17:06:46.275Z,11.40
2023-01-17T17:09:17.102Z,11.38
2023-01-17T17:11:47.885Z,11.37
2023-01-17T17:14:18.825Z,11.33
2023-01-17T17:16:52.086Z,11.34
2023-01-17T17:19:22.995Z,11.29
2023-01-17T17:21:53.810Z,11.27
2023-01-17T17:24:24.712Z,11.25
2023-01-17T17:26:55.522Z,11.22
2023-01-17T17:29:26.304Z,11.18
2023-01-17T17:31:57.063Z,11.10
2023-01-17T17:34:30.972Z,11.02
2023-01-17T17:37:03.723Z,10.97
2023-01-17T17:39:35.266Z,10.93
2023-01-17T17:42:06.613Z,10.91
2023-01-17T17:44:37.672Z,10.91
2023-01-17T17:47:08.274Z,10.91
2023-01-17T17:49:39.653Z,10.90
2023-01-17T17:52:10.560Z,10.90
2023-01-17T17:54:42.262Z,10.89
2023-01-17T17:57:12.999Z,10.90
2023-01-17T17:59:43.808Z,10.94
2023-01-17T18:02:14.648Z,10.98
2023-01-17T18:04:45.431Z,10.96
2023-01-17T18:07:16.222Z,10.91
2023-01-17T18:09:47.399Z,10.87
2023-01-17T18:12:18.076Z,10.82
2023-01-17T18:14:48.799Z,10.80
2023-01-17T18:17:20.498Z,10.80
2023-01-17T18:19:51.283Z,10.82
2023-01-17T18:22:22.116Z,10.84
2023-01-17T18:24:52.958Z,10.82
2023-01-17T18:27:23.809Z,10.80
2023-01-17T18:29:54.624Z,10.79
2023-01-17T18:32:25.469Z,10.76
2023-01-17T18:34:56.323Z,10.77
2023-01-17T18:37:27.315Z,10.81
2023-01-17T18:39:58.348Z,10.82
2023-01-17T18:42:29.172Z,10.84
2023-01-17T18:45:00.027Z,10.80
2023-01-17T18:47:31.679Z,10.75
2023-01-17T18:50:02.779Z,10.72
2023-01-17T18:52:35.315Z,10.71
2023-01-17T18:55:06.724Z,10.71
2023-01-17T18:57:38.414Z,10.69
2023-01-17T19:00:10.451Z,10.66
2023-01-17T19:02:41.265Z,10.64
2023-01-17T19:05:15.090Z,10.62
2023-01-17T19:07:46.183Z,10.60
2023-01-17T19:10:19.994Z,10.59
2023-01-17T19:12:50.861Z,10.58
2023-01-17T19:15:21.585Z,10.56
2023-01-17T19:17:52.363Z,10.54
2023-01-17T19:20:23.211Z,10.53
2023-01-17T19:22:53.889Z,10.54
2023-01-17T19:25:25.800Z,10.55
2023-01-17T19:27:57.517Z,10.53
2023-01-17T19:30:28.609Z,10.53
2023-01-17T19:32:59.418Z,10.52
2023-01-17T19:35:30.453Z,10.51
2023-01-17T19:38:01.731Z,10.51
2023-01-17T19:40:32.556Z,10.51
2023-01-17T19:43:04.600Z,10.53
2023-01-17T19:45:35.522Z,10.56
2023-01-17T19:48:06.774Z,10.58
2023-01-17T19:50:37.593Z,10.59
2023-01-17T19:53:08.312Z,10.60
2023-01-17T19:55:42.025Z,10.61
2023-01-17T19:58:13.296Z,10.63
2023-01-17T20:00:46.706Z,10.62
2023-01-17T20:03:17.737Z,10.58
2023-01-17T20:05:48.528Z,10.54
2023-01-17T20:08:19.494Z,10.55
2023-01-17T20:10:50.337Z,10.59
2023-01-17T20:13:21.070Z,10.64
2023-01-17T20:15:52.025Z,10.68
2023-01-17T20:18:22.971Z,10.73
2023-01-17T20:20:57.661Z,10.76
2023-01-17T20:23:28.689Z,10.77
2023-01-17T20:26:00.793Z,10.77
2023-01-17T20:28:32.038Z,10.78
2023-01-17T20:31:07.725Z,10.77
2023-01-17T20:33:38.277Z,10.77
2023-01-17T20:36:11.147Z,10.76
2023-01-17T20:38:45.030Z,10.77
2023-01-17T20:41:17.352Z,10.79
2023-01-17T20:43:48.843Z,10.79
2023-01-17T20:46:20.212Z,10.80
2023-01-17T20:48:51.481Z,10.80
2023-01-17T20:51:22.932Z,10.79
2023-01-17T20:53:54.192Z,10.74
2023-01-17T20:56:25.243Z,10.69
2023-01-17T20:58:56.175Z,10.62
2023-01-17T21:01:28.016Z,10.58
2023-01-17T21:03:59.030Z,10.54
2023-01-17T21:06:29.956Z,10.51
2023-01-17T21:09:01.111Z,10.53
2023-01-17T21:11:32.119Z,10.55
2023-01-17T21:14:02.983Z,10.55
2023-01-17T21:16:34.366Z,10.53
2023-01-17T21:19:05.159Z,10.50
2023-01-17T21:21:36.068Z,10.47
2023-01-17T21:24:07.381Z,10.44
2023-01-17T21:26:40.136Z,10.46
2023-01-17T21:29:11.117Z,10.47
2023-01-17T21:31:42.852Z,10.49
2023-01-17T21:34:13.753Z,10.51
2023-01-17T21:36:44.733Z,10.50
2023-01-17T21:39:16.836Z,10.50
2023-01-17T21:41:48.177Z,10.49
2023-01-17T21:44:20.448Z,10.50
2023-01-17T21:46:55.074Z,10.50
2023-01-17T21:49:26.715Z,10.51
2023-01-17T21:52:14.792Z,10.52
2023-01-17T21:55:03.336Z,10.54
2023-01-17T21:57:51.828Z,10.54
2023-01-17T22:00:22.837Z,10.54
2023-01-17T22:02:53.938Z,10.51
2023-01-17T22:05:24.732Z,10.51
2023-01-17T22:08:15.009Z,10.53
2023-01-17T22:10:48.789Z,10.54
2023-01-17T22:13:19.876Z,10.58
2023-01-17T22:15:58.479Z,10.61
2023-01-17T22:18:29.589Z,10.63
2023-01-17T22:21:04.139Z,10.64
2023-01-17T22:23:35.155Z,10.65
2023-01-17T22:26:06.535Z,10.66
2023-01-17T22:28:37.392Z,10.68
2023-01-17T22:31:10.810Z,10.70
2023-01-17T22:33:42.263Z,10.74
2023-01-17T22:36:13.904Z,10.77
2023-01-17T22:38:45.086Z,10.80
2023-01-17T22:41:17.202Z,10.84
2023-01-17T22:43:48.808Z,10.86
2023-01-17T22:46:20.064Z,10.87
2023-01-17T22:48:51.056Z,10.90
2023-01-17T22:51:22.454Z,10.90
2023-01-17T22:53:53.674Z,10.91
2023-01-17T22:56:25.145Z,10.92
2023-01-17T22:58:55.952Z,10.94
2023-01-17T23:01:27.205Z,10.97
2023-01-17T23:03:58.640Z,11.00
2023-01-17T23:06:30.426Z,11.03
2023-01-17T23:09:02.539Z,11.05
2023-01-17T23:11:46.861Z,11.06
2023-01-17T23:14:18.641Z,11.05
2023-01-17T23:17:07.233Z,11.04
2023-01-17T23:19:38.454Z,11.01
2023-01-17T23:22:20.311Z,10.97
2023-01-17T23:24:51.903Z,10.94
2023-01-17T23:27:40.845Z,10.92
2023-01-17T23:30:13.495Z,10.92
2023-01-17T23:32:46.296Z,10.92
2023-01-17T23:35:17.336Z,10.89
2023-01-17T23:38:05.475Z,10.90
2023-01-17T23:40:36.798Z,10.92
2023-01-17T23:43:25.510Z,10.92
2023-01-17T23:45:56.359Z,10.91
2023-01-17T23:48:27.428Z,10.88
2023-01-17T23:50:59.695Z,10.86
2023-01-17T23:53:30.359Z,10.83
2023-01-17T23:56:01.160Z,10.79
2023-01-17T23:58:31.961Z,10.75
